createdAt,value
2023-02-28T00:00:11.107Z,95896.91
2023-02-28T00:02:39.092Z,95896.28
2023-02-28T00:05:09.613Z,95888.41
2023-02-28T00:07:37.963Z,95891.44
2023-02-28T00:10:09.463Z,95890.63
2023-02-28T00:12:38.184Z,95888.56
2023-02-28T00:15:08.712Z,95874.19
2023-02-28T00:17:36.630Z,95882.59
2023-02-28T00:20:09.183Z,95872.56
2023-02-28T00:22:37.010Z,95879.41
2023-02-28T00:25:10.499Z,95878.00
2023-02-28T00:27:41.883Z,95868.81
2023-02-28T00:30:12.530Z,95875.94
2023-02-28T00:32:40.697Z,95880.44
2023-02-28T00:35:09.589Z,95864.75
2023-02-28T00:37:37.808Z,95865.09
2023-02-28T00:40:07.263Z,95871.22
2023-02-28T00:42:35.500Z,95871.97
2023-02-28T00:45:06.096Z,95872.34
2023-02-28T00:47:34.693Z,95865.56
2023-02-28T00:50:07.254Z,95869.44
2023-02-28T00:52:34.982Z,95877.38
2023-02-28T00:55:02.684Z,95870.81
2023-02-28T00:57:30.448Z,95874.00
2023-02-28T00:59:59.907Z,95869.91
2023-02-28T01:02:29.204Z,95869.72
2023-02-28T01:04:57.783Z,95880.22
2023-02-28T01:07:25.730Z,95872.28
2023-02-28T01:09:53.478Z,95872.03
2023-02-28T01:12:21.287Z,95865.44
2023-02-28T01:14:49.026Z,95870.47
2023-02-28T01:17:16.923Z,95870.47
2023-02-28T01:19:46.052Z,95860.81
2023-02-28T01:22:13.886Z,95861.81
2023-02-28T01:24:41.635Z,95861.34
2023-02-28T01:27:09.698Z,95853.69
2023-02-28T01:29:37.424Z,95863.66
2023-02-28T01:32:05.525Z,95860.19
2023-02-28T01:34:33.241Z,95856.88
2023-02-28T01:37:04.496Z,95853.41
2023-02-28T01:39:32.364Z,95851.13
2023-02-28T01:42:00.151Z,95853.13
2023-02-28T01:44:57.666Z,95850.31
2023-02-28T01:47:27.798Z,95846.38
2023-02-28T01:49:56.076Z,95842.84
2023-02-28T01:52:25.992Z,95848.13
2023-02-28T01:54:57.881Z,95840.72
2023-02-28T01:57:32.201Z,95839.91
2023-02-28T02:00:03.111Z,95842.66
2023-02-28T02:02:31.440Z,95840.63
2023-02-28T02:05:03.045Z,95840.28
2023-02-28T02:07:36.049Z,95835.09
2023-02-28T02:10:07.418Z,95834.25
2023-02-28T02:13:01.153Z,95839.09
2023-02-28T02:15:34.174Z,95842.91
2023-02-28T02:18:07.283Z,95839.09
2023-02-28T02:20:53.372Z,95834.81
2023-02-28T02:23:44.812Z,95831.69
2023-02-28T02:26:53.126Z,95833.88
2023-02-28T02:29:55.842Z,95835.72
2023-02-28T02:32:51.536Z,95833.50
2023-02-28T02:35:27.458Z,95835.25
2023-02-28T02:38:01.237Z,95838.81
2023-02-28T02:40:39.385Z,95829.22
2023-02-28T02:43:13.426Z,95829.78
2023-02-28T02:45:47.974Z,95826.41
2023-02-28T02:48:21.399Z,95826.75
2023-02-28T02:50:56.243Z,95827.88
2023-02-28T02:53:27.204Z,95818.94
2023-02-28T02:55:57.068Z,95818.09
2023-02-28T02:58:31.917Z,95821.38
2023-02-28T03:01:02.886Z,95820.75
2023-02-28T03:03:33.704Z,95817.91
2023-02-28T03:06:04.108Z,95823.84
2023-02-28T03:08:38.054Z,95814.63
2023-02-28T03:11:08.354Z,95818.19
2023-02-28T03:13:49.841Z,95820.75
2023-02-28T03:16:37.331Z,95820.94
2023-02-28T03:19:24.095Z,95818.63
2023-02-28T03:22:06.755Z,95821.94
2023-02-28T03:24:42.174Z,95822.09
2023-02-28T03:27:14.129Z,95816.28
2023-02-28T03:29:47.892Z,95817.28
2023-02-28T03:32:24.228Z,95827.41
2023-02-28T03:35:04.711Z,95824.50
2023-02-28T03:37:37.384Z,95828.59
2023-02-28T03:40:10.042Z,95819.22
2023-02-28T03:42:41.410Z,95821.66
2023-02-28T03:45:18.957Z,95816.81
2023-02-28T03:47:52.707Z,95819.56
2023-02-28T03:50:24.609Z,95825.66
2023-02-28T03:53:02.214Z,95831.16
2023-02-28T03:55:34.275Z,95830.16
2023-02-28T03:58:07.642Z,95826.03
2023-02-28T04:00:38.066Z,95832.97
2023-02-28T04:03:06.257Z,95831.69
2023-02-28T04:05:34.413Z,95832.97
2023-02-28T04:08:08.138Z,95841.66
2023-02-28T04:10:36.275Z,95844.09
2023-02-28T04:13:04.010Z,95843.50
2023-02-28T04:15:35.256Z,95852.69
2023-02-28T04:18:03.600Z,95854.03
2023-02-28T04:20:31.289Z,95861.72
2023-02-28T04:22:59.004Z,95859.31
2023-02-28T04:25:28.123Z,95856.84
2023-02-28T04:27:55.853Z,95871.06
2023-02-28T04:30:25.711Z,95871.38
2023-02-28T04:32:53.446Z,95869.44
2023-02-28T04:35:21.245Z,95865.34
2023-02-28T04:37:48.960Z,95859.69
2023-02-28T04:40:18.719Z,95860.72
2023-02-28T04:42:47.768Z,95866.53
2023-02-28T04:45:15.570Z,95859.91
2023-02-28T04:47:43.744Z,95854.59
2023-02-28T04:50:12.110Z,95862.81
2023-02-28T04:52:42.592Z,95869.09
2023-02-28T04:55:11.313Z,95868.09
2023-02-28T04:57:39.132Z,95865.91
2023-02-28T05:00:12.521Z,95865.38
2023-02-28T05:02:41.062Z,95867.91
2023-02-28T05:05:09.051Z,95878.34
2023-02-28T05:07:36.823Z,95877.06
2023-02-28T05:10:06.437Z,95885.91
2023-02-28T05:12:34.295Z,95890.50
2023-02-28T05:15:03.299Z,95888.84
2023-02-28T05:17:32.536Z,95887.81
2023-02-28T05:20:13.408Z,95882.16
2023-02-28T05:22:42.838Z,95883.09
2023-02-28T05:25:15.988Z,95880.88
2023-02-28T05:27:44.109Z,95885.84
2023-02-28T05:30:12.907Z,95890.84
2023-02-28T05:32:43.788Z,95889.19
2023-02-28T05:35:19.326Z,95887.69
2023-02-28T05:37:49.037Z,95889.63
2023-02-28T05:40:21.288Z,95890.97
2023-02-28T05:42:49.293Z,95878.19
2023-02-28T05:45:18.038Z,95883.16
2023-02-28T05:47:47.104Z,95878.38
2023-02-28T05:50:14.945Z,95877.81
2023-02-28T05:52:42.695Z,95880.56
2023-02-28T05:55:11.144Z,95878.34
2023-02-28T05:57:38.852Z,95886.72
2023-02-28T06:00:07.943Z,95888.16
2023-02-28T06:02:35.674Z,95884.75
2023-02-28T06:05:04.799Z,95888.47
2023-02-28T06:07:32.626Z,95890.34
2023-02-28T06:10:00.296Z,95895.06
2023-02-28T06:12:28.027Z,95894.69
2023-02-28T06:14:55.892Z,95895.72
2023-02-28T06:17:23.564Z,95901.16
2023-02-28T06:19:51.819Z,95905.84
2023-02-28T06:22:21.000Z,95903.00
2023-02-28T06:24:48.891Z,95899.38
2023-02-28T06:27:16.625Z,95900.00
2023-02-28T06:29:44.306Z,95901.84
2023-02-28T06:32:11.986Z,95908.44
2023-02-28T06:34:39.671Z,95902.72
2023-02-28T06:37:07.392Z,95907.25
2023-02-28T06:39:36.505Z,95907.06
2023-02-28T06:42:04.445Z,95905.88
2023-02-28T06:44:36.300Z,95909.53
2023-02-28T06:47:05.231Z,95917.56
2023-02-28T06:49:33.264Z,95915.53
2023-02-28T06:52:01.038Z,95917.75
2023-02-28T06:54:29.215Z,95913.09
2023-02-28T06:56:59.705Z,95928.03
2023-02-28T06:59:27.649Z,95928.25
2023-02-28T07:01:58.476Z,95933.31
2023-02-28T07:04:27.108Z,95933.31
2023-02-28T07:06:57.755Z,95938.88
2023-02-28T07:09:31.066Z,95935.63
2023-02-28T07:12:01.537Z,95938.09
2023-02-28T07:14:29.434Z,95939.38
2023-02-28T07:16:57.147Z,95950.03
2023-02-28T07:19:24.813Z,95943.47
2023-02-28T07:21:52.518Z,95941.81
2023-02-28T07:24:22.213Z,95941.84
2023-02-28T07:26:49.916Z,95944.91
2023-02-28T07:29:19.029Z,95946.78
2023-02-28T07:31:47.606Z,95942.50
2023-02-28T07:34:15.796Z,95936.97
2023-02-28T07:36:43.552Z,95943.53
2023-02-28T07:39:11.506Z,95929.00
2023-02-28T07:41:44.163Z,95933.94
2023-02-28T07:44:13.903Z,95931.28
2023-02-28T07:46:43.042Z,95927.38
2023-02-28T07:49:12.543Z,95931.06
2023-02-28T07:51:40.381Z,95925.38
2023-02-28T07:54:08.737Z,95930.28
2023-02-28T07:56:36.459Z,95930.44
2023-02-28T07:59:04.281Z,95932.91
2023-02-28T08:01:32.455Z,95929.25
2023-02-28T08:04:02.166Z,95935.38
2023-02-28T08:06:29.882Z,95938.28
2023-02-28T08:08:57.966Z,95942.78
2023-02-28T08:11:26.873Z,95939.94
2023-02-28T08:13:54.593Z,95941.56
2023-02-28T08:16:23.532Z,95947.47
2023-02-28T08:18:51.954Z,95957.72
2023-02-28T08:21:21.908Z,95949.94
2023-02-28T08:23:50.496Z,95949.34
2023-02-28T08:26:19.137Z,95938.69
2023-02-28T08:28:47.890Z,95948.94
2023-02-28T08:31:18.222Z,95941.38
2023-02-28T08:33:46.710Z,95949.13
2023-02-28T08:36:14.913Z,95946.44
2023-02-28T08:38:44.341Z,95950.78
2023-02-28T08:41:14.146Z,95959.38
2023-02-28T08:43:42.700Z,95962.25
2023-02-28T08:46:13.106Z,95961.63
2023-02-28T08:48:41.066Z,95959.56
2023-02-28T08:51:11.178Z,95963.63
2023-02-28T08:53:40.269Z,95964.66
2023-02-28T08:56:14.251Z,95961.38
2023-02-28T08:58:42.787Z,95972.88
2023-02-28T09:01:13.013Z,95962.19
2023-02-28T09:03:42.449Z,95968.56
2023-02-28T09:06:13.856Z,95973.44
2023-02-28T09:08:41.662Z,95975.72
2023-02-28T09:11:11.424Z,95971.75
2023-02-28T09:13:40.616Z,95977.03
2023-02-28T09:16:10.708Z,95976.63
2023-02-28T09:18:39.268Z,95964.41
2023-02-28T09:21:08.239Z,95973.38
2023-02-28T09:23:38.978Z,95973.94
2023-02-28T09:26:07.250Z,95976.16
2023-02-28T09:28:39.281Z,95980.69
2023-02-28T09:31:07.096Z,95983.78
2023-02-28T09:33:37.730Z,95978.44
2023-02-28T09:36:06.262Z,95985.81
2023-02-28T09:38:34.004Z,95992.19
2023-02-28T09:41:04.625Z,95995.91
2023-02-28T09:43:37.692Z,95995.28
2023-02-28T09:46:14.576Z,95997.78
2023-02-28T09:48:47.809Z,95989.63
2023-02-28T09:51:31.940Z,95993.72
2023-02-28T09:54:01.957Z,95998.06
2023-02-28T09:56:35.089Z,95998.63
2023-02-28T09:59:07.808Z,96001.81
2023-02-28T10:01:44.701Z,96013.03
2023-02-28T10:04:18.876Z,96003.88
2023-02-28T10:06:50.695Z,95993.28
2023-02-28T10:09:21.702Z,96005.75
2023-02-28T10:11:54.409Z,96011.22
2023-02-28T10:14:26.476Z,96009.16
2023-02-28T10:16:58.583Z,96012.13
2023-02-28T10:19:33.498Z,96008.38
2023-02-28T10:22:04.530Z,96013.53
2023-02-28T10:24:36.346Z,96019.28
2023-02-28T10:27:19.553Z,96010.63
2023-02-28T10:29:50.134Z,96013.03
2023-02-28T10:32:21.033Z,96019.16
2023-02-28T10:34:54.560Z,96024.97
2023-02-28T10:37:22.860Z,96025.13
2023-02-28T10:39:50.647Z,96030.63
2023-02-28T10:42:27.587Z,96028.78
2023-02-28T10:45:12.557Z,96027.47
2023-02-28T10:47:53.889Z,96026.13
2023-02-28T10:50:36.895Z,96026.91
2023-02-28T10:53:30.449Z,96036.84
2023-02-28T10:56:00.136Z,96031.72
2023-02-28T10:58:31.539Z,96030.53
2023-02-28T11:01:00.467Z,96020.50
2023-02-28T11:03:38.606Z,96018.31
2023-02-28T11:06:09.883Z,96029.53
2023-02-28T11:08:47.649Z,96017.59
2023-02-28T11:11:16.626Z,96023.50
2023-02-28T11:13:46.740Z,96017.19
2023-02-28T11:16:16.327Z,96018.69
2023-02-28T11:18:50.106Z,96015.44
2023-02-28T11:21:23.037Z,96013.78
2023-02-28T11:23:52.379Z,96014.72
2023-02-28T11:26:42.175Z,96017.97
2023-02-28T11:29:23.274Z,96007.38
2023-02-28T11:32:14.764Z,96009.88
2023-02-28T11:34:45.067Z,96010.09
2023-02-28T11:37:16.641Z,96006.41
2023-02-28T11:39:44.977Z,96001.56
2023-02-28T11:42:45.871Z,95999.00
2023-02-28T11:45:30.325Z,95998.16
2023-02-28T11:48:06.631Z,95995.81
2023-02-28T11:51:05.149Z,95984.50
2023-02-28T11:56:08.587Z,95991.50
2023-02-28T11:58:48.482Z,95992.53
2023-02-28T12:01:39.277Z,95993.47
2023-02-28T12:04:19.970Z,95988.50
2023-02-28T12:06:54.317Z,95987.09
2023-02-28T12:09:35.944Z,95987.28
2023-02-28T12:12:15.680Z,95985.31
2023-02-28T12:14:57.386Z,95987.41
2023-02-28T12:17:37.426Z,95988.00
2023-02-28T12:20:18.566Z,95982.53
2023-02-28T12:22:57.334Z,95979.53
2023-02-28T12:25:52.300Z,95969.59
2023-02-28T12:28:28.196Z,95972.72
2023-02-28T12:31:03.479Z,95968.56
2023-02-28T12:33:37.977Z,95956.09
2023-02-28T12:36:12.908Z,95957.91
2023-02-28T12:38:45.805Z,95958.38
2023-02-28T12:41:17.393Z,95953.19
2023-02-28T12:43:50.259Z,95956.31
2023-02-28T12:46:23.612Z,95957.44
2023-02-28T12:48:56.525Z,95942.09
2023-02-28T12:51:27.966Z,95932.47
2023-02-28T12:54:08.948Z,95939.56
2023-02-28T12:56:44.229Z,95944.69
2023-02-28T12:59:16.942Z,95943.81
2023-02-28T13:02:01.876Z,95941.28
2023-02-28T13:04:58.760Z,95949.78
2023-02-28T13:07:55.856Z,95954.03
2023-02-28T13:10:26.171Z,95954.47
2023-02-28T13:12:55.990Z,95957.66
2023-02-28T13:15:29.288Z,95959.31
2023-02-28T13:18:00.124Z,95956.69
2023-02-28T13:20:36.909Z,95949.53
2023-02-28T13:23:06.389Z,95948.69
2023-02-28T13:25:56.612Z,95948.53
2023-02-28T13:28:59.909Z,95950.75
2023-02-28T13:31:29.083Z,95946.31
2023-02-28T13:34:17.688Z,95965.53
2023-02-28T13:36:45.497Z,95958.66
2023-02-28T13:39:49.839Z,95965.94
2023-02-28T13:42:38.334Z,95958.09
2023-02-28T13:45:25.577Z,95958.50
2023-02-28T13:48:02.440Z,95960.94
2023-02-28T13:50:34.123Z,95957.66
2023-02-28T13:53:39.535Z,95963.50
2023-02-28T13:56:20.043Z,95966.78
2023-02-28T13:58:56.745Z,95964.22
2023-02-28T14:01:36.832Z,95966.38
2023-02-28T14:04:37.495Z,95964.59
2023-02-28T14:07:06.416Z,95964.72
2023-02-28T14:09:37.745Z,95964.34
2023-02-28T14:12:42.724Z,95950.47
2023-02-28T14:15:33.009Z,95953.53
2023-02-28T14:18:03.530Z,95949.78
2023-02-28T14:20:35.506Z,95953.31
2023-02-28T14:23:14.521Z,95951.78
2023-02-28T14:25:51.142Z,95945.72
2023-02-28T14:28:33.749Z,95947.16
2023-02-28T14:31:10.661Z,95953.09
2023-02-28T14:33:57.081Z,95950.75
2023-02-28T14:36:29.738Z,95955.56
2023-02-28T14:39:00.030Z,95958.94
2023-02-28T14:41:32.646Z,95954.38
2023-02-28T14:44:02.359Z,95954.47
2023-02-28T14:46:39.003Z,95945.19
2023-02-28T14:49:08.346Z,95951.22
2023-02-28T14:51:36.914Z,95954.78
2023-02-28T14:54:05.775Z,95957.75
2023-02-28T14:56:37.815Z,95959.03
2023-02-28T14:59:08.190Z,95959.91
2023-02-28T15:01:37.394Z,95951.75
2023-02-28T15:04:07.711Z,95943.31
2023-02-28T15:06:35.657Z,95949.06
2023-02-28T15:09:15.990Z,95952.00
2023-02-28T15:11:47.339Z,95950.25
2023-02-28T15:14:22.033Z,95947.66
2023-02-28T15:16:58.455Z,95954.66
2023-02-28T15:19:30.476Z,95952.09
2023-02-28T15:22:02.110Z,95954.91
2023-02-28T15:24:38.725Z,95961.88
2023-02-28T15:27:08.966Z,95947.53
2023-02-28T15:29:47.238Z,95956.94
2023-02-28T15:32:27.979Z,95956.25
2023-02-28T15:34:56.201Z,95954.47
2023-02-28T15:37:41.276Z,95960.06
2023-02-28T15:40:18.643Z,95965.41
2023-02-28T15:43:00.737Z,95970.31
2023-02-28T15:45:30.648Z,95959.38
2023-02-28T15:48:12.297Z,95955.97
2023-02-28T15:50:41.702Z,95961.94
2023-02-28T15:53:15.732Z,95973.81
2023-02-28T15:55:43.657Z,95970.75
2023-02-28T15:58:14.469Z,95972.25
2023-02-28T16:00:50.430Z,95962.56
2023-02-28T16:03:39.472Z,95971.25
2023-02-28T16:06:29.596Z,95972.81
2023-02-28T16:08:57.349Z,95973.56
2023-02-28T16:11:25.356Z,95976.91
2023-02-28T16:13:54.461Z,95986.00
2023-02-28T16:16:25.164Z,95983.78
2023-02-28T16:18:54.664Z,95977.53
2023-02-28T16:21:22.585Z,95976.59
2023-02-28T16:23:50.424Z,95978.50
2023-02-28T16:26:25.092Z,95971.00
2023-02-28T16:28:53.937Z,95985.91
2023-02-28T16:31:22.443Z,95976.59
2023-02-28T16:33:50.159Z,95982.91
2023-02-28T16:36:23.200Z,95983.56
2023-02-28T16:38:51.433Z,95981.41
2023-02-28T16:41:21.095Z,95986.00
2023-02-28T16:43:50.883Z,95986.94
2023-02-28T16:46:19.675Z,95997.13
2023-02-28T16:48:49.594Z,95997.44
2023-02-28T16:51:19.614Z,96003.25
2023-02-28T16:53:47.801Z,95996.13
2023-02-28T16:56:19.288Z,96001.72
2023-02-28T16:58:50.708Z,96007.91
2023-02-28T17:01:22.752Z,96004.88
2023-02-28T17:03:51.155Z,96012.09
2023-02-28T17:06:23.045Z,96013.59
2023-02-28T17:08:51.229Z,96012.56
2023-02-28T17:11:19.625Z,96016.31
2023-02-28T17:13:47.757Z,96021.28
2023-02-28T17:16:22.667Z,96026.63
2023-02-28T17:18:51.928Z,96030.94
2023-02-28T17:21:21.108Z,96036.69
2023-02-28T17:23:48.980Z,96034.22
2023-02-28T17:26:20.895Z,96040.00
2023-02-28T17:28:48.787Z,96036.91
2023-02-28T17:31:17.022Z,96047.59
2023-02-28T17:33:44.916Z,96056.59
2023-02-28T17:36:16.331Z,96060.69
2023-02-28T17:38:45.812Z,96064.81
2023-02-28T17:41:13.730Z,96054.53
2023-02-28T17:43:41.904Z,96057.00
2023-02-28T17:46:19.306Z,96050.22
2023-02-28T17:48:47.086Z,96045.50
2023-02-28T17:51:16.082Z,96046.34
2023-02-28T17:53:45.363Z,96044.09
2023-02-28T17:56:15.745Z,96040.81
2023-02-28T17:58:43.812Z,96041.22
2023-02-28T18:01:12.977Z,96045.75
2023-02-28T18:03:41.400Z,96051.91
2023-02-28T18:06:14.049Z,96052.09
2023-02-28T18:08:42.401Z,96049.03
2023-02-28T18:11:18.047Z,96044.72
2023-02-28T18:13:47.710Z,96044.69
2023-02-28T18:16:19.208Z,96051.47
2023-02-28T18:18:47.387Z,96051.06
2023-02-28T18:21:17.130Z,96041.22
2023-02-28T18:23:48.689Z,96046.34
2023-02-28T18:26:19.899Z,96050.44
2023-02-28T18:28:48.898Z,96048.41
2023-02-28T18:31:18.791Z,96044.69
2023-02-28T18:33:50.274Z,96049.59
2023-02-28T18:36:18.891Z,96044.88
2023-02-28T18:38:46.948Z,96045.31
2023-02-28T18:41:14.885Z,96042.22
2023-02-28T18:43:44.381Z,96043.25
2023-02-28T18:46:14.936Z,96044.44
2023-02-28T18:48:42.741Z,96040.94
2023-02-28T18:51:11.780Z,96040.34
2023-02-28T18:53:41.463Z,96037.88
2023-02-28T18:56:13.009Z,96037.06
2023-02-28T18:58:41.902Z,96041.56
2023-02-28T19:01:18.509Z,96035.81
2023-02-28T19:03:46.896Z,96031.72
2023-02-28T19:06:15.115Z,96033.78
2023-02-28T19:08:42.910Z,96033.97
2023-02-28T19:11:11.520Z,96034.63
2023-02-28T19:13:39.467Z,96031.09
2023-02-28T19:16:10.040Z,96034.59
2023-02-28T19:18:39.454Z,96037.25
2023-02-28T19:21:08.301Z,96037.06
2023-02-28T19:23:36.098Z,96035.22
2023-02-28T19:26:11.125Z,96043.81
2023-02-28T19:28:39.695Z,96043.03
2023-02-28T19:31:13.477Z,96040.13
2023-02-28T19:33:43.155Z,96038.91
2023-02-28T19:36:12.641Z,96031.31
2023-02-28T19:38:40.994Z,96032.94
2023-02-28T19:41:11.324Z,96042.81
2023-02-28T19:43:39.680Z,96042.19
2023-02-28T19:46:09.488Z,96039.94
2023-02-28T19:48:40.048Z,96039.31
2023-02-28T19:51:12.058Z,96029.47
2023-02-28T19:53:41.614Z,96032.94
2023-02-28T19:56:10.549Z,96035.41
2023-02-28T19:58:39.238Z,96026.78
2023-02-28T20:01:11.976Z,96026.38
2023-02-28T20:03:39.942Z,96034.97
2023-02-28T20:06:11.548Z,96029.63
2023-02-28T20:08:40.834Z,96029.00
2023-02-28T20:11:10.843Z,96016.63
2023-02-28T20:13:38.960Z,96019.47
2023-02-28T20:16:09.586Z,96013.88
2023-02-28T20:18:38.605Z,96018.38
2023-02-28T20:21:08.726Z,96012.38
2023-02-28T20:23:38.852Z,96010.91
2023-02-28T20:26:07.601Z,96000.00
2023-02-28T20:28:35.435Z,96005.91
2023-02-28T20:31:03.609Z,96010.63
2023-02-28T20:33:31.509Z,96017.59
2023-02-28T20:36:00.887Z,96013.00
2023-02-28T20:38:30.917Z,96008.69
2023-02-28T20:41:02.232Z,96016.03
2023-02-28T20:43:31.140Z,96008.88
2023-02-28T20:46:01.856Z,96002.66
2023-02-28T20:48:30.835Z,96013.38
2023-02-28T20:51:00.445Z,96007.22
2023-02-28T20:53:29.316Z,96003.72
2023-02-28T20:55:58.196Z,96000.84
2023-02-28T20:58:29.922Z,96006.19
2023-02-28T21:01:01.977Z,96003.72
2023-02-28T21:03:30.213Z,96005.56
2023-02-28T21:06:02.656Z,95998.53
2023-02-28T21:08:31.553Z,96006.16
2023-02-28T21:10:59.879Z,96012.31
2023-02-28T21:13:29.472Z,96008.16
2023-02-28T21:15:58.245Z,96005.34
2023-02-28T21:18:26.684Z,96009.47
2023-02-28T21:20:55.177Z,96009.25
2023-02-28T21:23:23.473Z,96009.88
2023-02-28T21:25:52.021Z,96000.63
2023-02-28T21:28:20.309Z,96006.59
2023-02-28T21:30:50.325Z,95997.34
2023-02-28T21:33:19.327Z,95999.19
2023-02-28T21:35:47.564Z,96000.44
2023-02-28T21:38:15.315Z,96001.06
2023-02-28T21:40:43.165Z,95984.81
2023-02-28T21:43:10.945Z,95996.53
2023-02-28T21:45:38.786Z,95988.28
2023-02-28T21:48:07.991Z,95982.94
2023-02-28T21:50:38.314Z,95992.22
2023-02-28T21:53:06.080Z,95989.53
2023-02-28T21:55:35.548Z,95980.06
2023-02-28T21:58:03.852Z,95980.50
2023-02-28T22:00:31.753Z,95991.59
2023-02-28T22:03:03.555Z,95990.16
2023-02-28T22:05:32.721Z,96001.44
2023-02-28T22:08:00.548Z,95992.41
2023-02-28T22:10:28.333Z,95988.28
2023-02-28T22:12:56.127Z,95983.13
2023-02-28T22:15:24.236Z,95996.91
2023-02-28T22:17:52.303Z,95988.94
2023-02-28T22:20:21.872Z,95989.94
2023-02-28T22:22:51.074Z,95990.94
2023-02-28T22:25:19.031Z,95986.22
2023-02-28T22:27:46.806Z,95982.13
2023-02-28T22:30:15.644Z,95982.13
2023-02-28T22:32:43.376Z,95977.22
2023-02-28T22:35:11.516Z,95983.38
2023-02-28T22:37:39.363Z,95987.69
2023-02-28T22:40:11.187Z,95988.94
2023-02-28T22:42:38.886Z,95989.16
2023-02-28T22:45:07.360Z,95991.81
2023-02-28T22:47:35.179Z,95998.22
2023-02-28T22:50:02.912Z,95989.00
2023-02-28T22:52:30.623Z,95995.09
2023-02-28T23:00:38.548Z,95992.91
2023-02-28T23:03:06.299Z,95988.00
2023-02-28T23:05:34.046Z,95991.50
2023-02-28T23:08:01.804Z,95983.44
2023-02-28T23:10:29.544Z,95980.97
2023-02-28T23:12:57.276Z,95971.72
2023-02-28T23:15:25.063Z,95981.19
2023-02-28T23:17:54.345Z,95978.09
2023-02-28T23:20:22.898Z,95982.19
2023-02-28T23:22:51.459Z,95978.31
2023-02-28T23:25:20.547Z,95981.38
2023-02-28T23:27:49.214Z,95979.75
2023-02-28T23:30:17.617Z,95975.84
2023-02-28T23:32:45.469Z,95981.22
2023-02-28T23:35:14.731Z,95977.91
2023-02-28T23:37:42.425Z,95983.66
2023-02-28T23:40:12.946Z,95975.03
2023-02-28T23:42:40.993Z,95974.84
2023-02-28T23:45:10.201Z,95978.94
2023-02-28T23:47:37.930Z,95976.47
2023-02-28T23:50:06.534Z,95968.81
2023-02-28T23:52:35.702Z,95974.00
2023-02-28T23:55:03.614Z,95970.72
2023-02-28T23:57:31.376Z,95972.56
2023-02-28T23:59:59.145Z,95965.38
